sensor_id;sensor_type;location;lat;lon;timestamp;pressure;altitude;pressure_sealevel;temperature;humidity
20424;BME280;10371;49.042;8.002;2022-10-15T00:00:29;99100.22;;;15.30;100.00
20424;BME280;10371;49.042;8.002;2022-10-15T00:01:30;99095.78;;;15.31;100.00
20424;BME280;10371;49.042;8.002;2022-10-15T00:02:30;99094.63;;;15.33;100.00
20424;BME280;10371;49.042;8.002;2022-10-15T00:03:31;99094.44;;;15.35;100.00
20424;BME280;10371;49.042;8.002;2022-10-15T00:04:32;99093.81;;;15.33;100.00
20424;BME280;10371;49.042;8.002;2022-10-15T00:05:36;99096.25;;;15.34;100.00
20424;BME280;10371;49.042;8.002;2022-10-15T00:06:36;99093.47;;;15.36;100.00
20424;BME280;10371;49.042;8.002;2022-10-15T00:07:36;99095.09;;;15.37;100.00
20424;BME280;10371;49.042;8.002;2022-10-15T00:08:37;99095.88;;;15.37;100.00
20424;BME280;10371;49.042;8.002;2022-10-15T00:09:38;99095.72;;;15.39;100.00
20424;BME280;10371;49.042;8.002;2022-10-15T00:10:38;99091.50;;;15.38;100.00
20424;BME280;10371;49.042;8.002;2022-10-15T00:11:38;99096.09;;;15.36;100.00
20424;BME280;10371;49.042;8.002;2022-10-15T00:12:40;99094.28;;;15.36;100.00
20424;BME280;10371;49.042;8.002;2022-10-15T00:13:41;99089.03;;;15.36;100.00
20424;BME280;10371;49.042;8.002;2022-10-15T00:14:41;99084.59;;;15.37;100.00
20424;BME280;10371;49.042;8.002;2022-10-15T00:15:41;99087.88;;;15.39;100.00
20424;BME280;10371;49.042;8.002;2022-10-15T00:16:42;99089.84;;;15.37;100.00
20424;BME280;10371;49.042;8.002;2022-10-15T00:17:42;99086.41;;;15.36;100.00
20424;BME280;10371;49.042;8.002;2022-10-15T00:18:43;99083.94;;;15.35;100.00
20424;BME280;10371;49.042;8.002;2022-10-15T00:19:43;99081.50;;;15.33;100.00
20424;BME280;10371;49.042;8.002;2022-10-15T00:20:44;99086.25;;;15.38;100.00
20424;BME280;10371;49.042;8.002;2022-10-15T00:21:44;99086.56;;;15.35;100.00
20424;BME280;10371;49.042;8.002;2022-10-15T00:22:44;99083.78;;;15.36;100.00
20424;BME280;10371;49.042;8.002;2022-10-15T00:23:46;99090.50;;;15.39;100.00
20424;BME280;10371;49.042;8.002;2022-10-15T00:24:47;99086.25;;;15.38;100.00
20424;BME280;10371;49.042;8.002;2022-10-15T00:25:47;99091.81;;;15.35;100.00
20424;BME280;10371;49.042;8.002;2022-10-15T00:26:47;99084.78;;;15.35;100.00
20424;BME280;10371;49.042;8.002;2022-10-15T00:27:48;99092.47;;;15.37;100.00
20424;BME280;10371;49.042;8.002;2022-10-15T00:28:49;99090.50;;;15.39;100.00
20424;BME280;10371;49.042;8.002;2022-10-15T00:29:50;99088.22;;;15.36;100.00
20424;BME280;10371;49.042;8.002;2022-10-15T00:30:51;99094.28;;;15.36;100.00
20424;BME280;10371;49.042;8.002;2022-10-15T00:31:52;99088.22;;;15.36;100.00
20424;BME280;10371;49.042;8.002;2022-10-15T00:32:53;99094.94;;;15.38;100.00
20424;BME280;10371;49.042;8.002;2022-10-15T00:33:56;99087.88;;;15.39;100.00
20424;BME280;10371;49.042;8.002;2022-10-15T00:34:57;99097.53;;;15.38;100.00
20424;BME280;10371;49.042;8.002;2022-10-15T00:36:19;99097.53;;;15.38;100.00
20424;BME280;10371;49.042;8.002;2022-10-15T00:37:20;99107.22;;;15.38;100.00
20424;BME280;10371;49.042;8.002;2022-10-15T00:38:21;99098.34;;;15.39;100.00
20424;BME280;10371;49.042;8.002;2022-10-15T00:39:21;99100.97;;;15.39;100.00
20424;BME280;10371;49.042;8.002;2022-10-15T00:40:21;99101.63;;;15.41;100.00
20424;BME280;10371;49.042;8.002;2022-10-15T00:41:29;99100.78;;;15.40;100.00
20424;BME280;10371;49.042;8.002;2022-10-15T00:42:29;99102.44;;;15.41;100.00
20424;BME280;10371;49.042;8.002;2022-10-15T00:44:47;99100.63;;;15.42;100.00
20424;BME280;10371;49.042;8.002;2022-10-15T00:45:48;99104.88;;;15.43;100.00
20424;BME280;10371;49.042;8.002;2022-10-15T00:46:55;99100.47;;;15.44;100.00
20424;BME280;10371;49.042;8.002;2022-10-15T00:47:56;99104.88;;;15.43;100.00
20424;BME280;10371;49.042;8.002;2022-10-15T00:49:39;99104.06;;;15.42;100.00
20424;BME280;10371;49.042;8.002;2022-10-15T00:50:41;99106.69;;;15.42;100.00
20424;BME280;10371;49.042;8.002;2022-10-15T00:51:46;99108.81;;;15.47;100.00
20424;BME280;10371;49.042;8.002;2022-10-15T00:53:09;99105.53;;;15.45;100.00
20424;BME280;10371;49.042;8.002;2022-10-15T00:54:10;99105.38;;;15.47;100.00
20424;BME280;10371;49.042;8.002;2022-10-15T00:55:17;99111.06;;;15.50;100.00
20424;BME280;10371;49.042;8.002;2022-10-15T00:56:21;99111.06;;;15.50;100.00
20424;BME280;10371;49.042;8.002;2022-10-15T00:57:23;99107.81;;;15.48;100.00
20424;BME280;10371;49.042;8.002;2022-10-15T00:58:24;99110.28;;;15.50;100.00
20424;BME280;10371;49.042;8.002;2022-10-15T00:59:28;99115.50;;;15.50;100.00
20424;BME280;10371;49.042;8.002;2022-10-15T01:00:30;99112.25;;;15.48;100.00
20424;BME280;10371;49.042;8.002;2022-10-15T01:01:30;99106.34;;;15.46;100.00
20424;BME280;10371;49.042;8.002;2022-10-15T01:02:31;99115.69;;;15.48;100.00
20424;BME280;10371;49.042;8.002;2022-10-15T01:03:31;99110.44;;;15.48;100.00
20424;BME280;10371;49.042;8.002;2022-10-15T01:04:34;99106.66;;;15.51;100.00
20424;BME280;10371;49.042;8.002;2022-10-15T01:05:37;99106.66;;;15.51;100.00
20424;BME280;10371;49.042;8.002;2022-10-15T01:06:38;99106.66;;;15.51;100.00
20424;BME280;10371;49.042;8.002;2022-10-15T01:07:39;99105.84;;;15.50;100.00
20424;BME280;10371;49.042;8.002;2022-10-15T01:08:39;99109.91;;;15.53;100.00
20424;BME280;10371;49.042;8.002;2022-10-15T01:09:40;99112.69;;;15.51;100.00
20424;BME280;10371;49.042;8.002;2022-10-15T01:12:01;99111.38;;;15.55;100.00
20424;BME280;10371;49.042;8.002;2022-10-15T01:13:13;99098.25;;;15.55;100.00
20424;BME280;10371;49.042;8.002;2022-10-15T01:14:43;99100.69;;;15.57;100.00
20424;BME280;10371;49.042;8.002;2022-10-15T01:15:54;99094.63;;;15.56;100.00
20424;BME280;10371;49.042;8.002;2022-10-15T01:17:30;99100.69;;;15.57;100.00
20424;BME280;10371;49.042;8.002;2022-10-15T01:19:05;99097.09;;;15.58;100.00
20424;BME280;10371;49.042;8.002;2022-10-15T01:22:35;99098.72;;;15.59;100.00
20424;BME280;10371;49.042;8.002;2022-10-15T01:24:14;99093.81;;;15.56;100.00
20424;BME280;10371;49.042;8.002;2022-10-15T01:27:55;99101.53;;;15.57;100.00
20424;BME280;10371;49.042;8.002;2022-10-15T01:29:18;99091.38;;;15.54;100.00
20424;BME280;10371;49.042;8.002;2022-10-15T01:30:33;99101.53;;;15.57;100.00
20424;BME280;10371;49.042;8.002;2022-10-15T01:31:53;99093.66;;;15.57;100.00
20424;BME280;10371;49.042;8.002;2022-10-15T01:33:31;99098.38;;;15.62;100.00
20424;BME280;10371;49.042;8.002;2022-10-15T01:34:53;99091.31;;;15.62;100.00
20424;BME280;10371;49.042;8.002;2022-10-15T01:36:00;99094.78;;;15.63;100.00
20424;BME280;10371;49.042;8.002;2022-10-15T01:37:12;99087.22;;;15.60;100.00
20424;BME280;10371;49.042;8.002;2022-10-15T01:38:38;99090.50;;;15.62;100.00
20424;BME280;10371;49.042;8.002;2022-10-15T01:39:47;99085.44;;;15.60;100.00
20424;BME280;10371;49.042;8.002;2022-10-15T01:40:58;99086.91;;;15.63;100.00
20424;BME280;10371;49.042;8.002;2022-10-15T01:42:04;99081.97;;;15.60;100.00
20424;BME280;10371;49.042;8.002;2022-10-15T01:43:14;99087.88;;;15.62;100.00
20424;BME280;10371;49.042;8.002;2022-10-15T01:44:23;99078.53;;;15.59;100.00
20424;BME280;10371;49.042;8.002;2022-10-15T01:45:37;99080.81;;;15.62;100.00
20424;BME280;10371;49.042;8.002;2022-10-15T01:46:46;99078.03;;;15.64;100.00
20424;BME280;10371;49.042;8.002;2022-10-15T01:47:53;99089.19;;;15.66;100.00
20424;BME280;10371;49.042;8.002;2022-10-15T01:48:56;99086.72;;;15.64;100.00
20424;BME280;10371;49.042;8.002;2022-10-15T01:49:59;99083.28;;;15.64;100.00
20424;BME280;10371;49.042;8.002;2022-10-15T01:51:04;99078.84;;;15.64;100.00
20424;BME280;10371;49.042;8.002;2022-10-15T01:52:13;99081.97;;;15.68;100.00
20424;BME280;10371;49.042;8.002;2022-10-15T01:53:17;99085.56;;;15.67;100.00
20424;BME280;10371;49.042;8.002;2022-10-15T01:54:19;99085.56;;;15.67;100.00
20424;BME280;10371;49.042;8.002;2022-10-15T01:55:23;99089.00;;;15.68;100.00
20424;BME280;10371;49.042;8.002;2022-10-15T01:56:26;99090.66;;;15.69;100.00
20424;BME280;10371;49.042;8.002;2022-10-15T01:57:28;99084.41;;;15.70;100.00
20424;BME280;10371;49.042;8.002;2022-10-15T01:58:33;99082.81;;;15.69;100.00
20424;BME280;10371;49.042;8.002;2022-10-15T01:59:34;99089.50;;;15.71;100.00
20424;BME280;10371;49.042;8.002;2022-10-15T02:00:35;99098.19;;;15.72;100.00
20424;BME280;10371;49.042;8.002;2022-10-15T02:01:35;99081.97;;;15.68;100.00
20424;BME280;10371;49.042;8.002;2022-10-15T02:02:35;99088.50;;;15.72;100.00
20424;BME280;10371;49.042;8.002;2022-10-15T02:04:15;99082.09;;;15.75;100.00
20424;BME280;10371;49.042;8.002;2022-10-15T02:05:19;99088.16;;;15.75;100.00
20424;BME280;10371;49.042;8.002;2022-10-15T02:07:44;99082.75;;;15.77;100.00
20424;BME280;10371;49.042;8.002;2022-10-15T02:09:00;99082.56;;;15.78;100.00
20424;BME280;10371;49.042;8.002;2022-10-15T02:10:11;99080.75;;;15.79;100.00
20424;BME280;10371;49.042;8.002;2022-10-15T02:11:15;99076.31;;;15.79;100.00
20424;BME280;10371;49.042;8.002;2022-10-15T02:16:22;99070.88;;;15.81;100.00
20424;BME280;10371;49.042;8.002;2022-10-15T02:20:56;99077.41;;;15.85;100.00
20424;BME280;10371;49.042;8.002;2022-10-15T02:22:04;99075.78;;;15.84;100.00
20424;BME280;10371;49.042;8.002;2022-10-15T02:23:12;99068.91;;;15.83;100.00
20424;BME280;10371;49.042;8.002;2022-10-15T02:24:18;99072.16;;;15.85;100.00
20424;BME280;10371;49.042;8.002;2022-10-15T02:25:21;99069.38;;;15.86;100.00
20424;BME280;10371;49.042;8.002;2022-10-15T02:26:24;99079.88;;;15.86;100.00
20424;BME280;10371;49.042;8.002;2022-10-15T02:27:28;99064.13;;;15.86;100.00
20424;BME280;10371;49.042;8.002;2022-10-15T02:28:29;99067.56;;;15.87;100.00
20424;BME280;10371;49.042;8.002;2022-10-15T02:29:33;99069.38;;;15.86;100.00
20424;BME280;10371;49.042;8.002;2022-10-15T02:30:36;99068.19;;;15.89;100.00
20424;BME280;10371;49.042;8.002;2022-10-15T02:31:40;99070.00;;;15.89;100.00
20424;BME280;10371;49.042;8.002;2022-10-15T02:32:44;99078.69;;;15.89;100.00
20424;BME280;10371;49.042;8.002;2022-10-15T02:33:48;99078.06;;;15.87;100.00
20424;BME280;10371;49.042;8.002;2022-10-15T02:34:51;99077.88;;;15.89;100.00
20424;BME280;10371;49.042;8.002;2022-10-15T02:35:53;99072.00;;;15.86;100.00
20424;BME280;10371;49.042;8.002;2022-10-15T02:36:56;99082.34;;;15.88;100.00
20424;BME280;10371;49.042;8.002;2022-10-15T02:38:01;99072.28;;;15.92;100.00
20424;BME280;10371;49.042;8.002;2022-10-15T02:39:03;99081.97;;;15.91;100.00
20424;BME280;10371;49.042;8.002;2022-10-15T02:40:04;99074.25;;;15.90;100.00
20424;BME280;10371;49.042;8.002;2022-10-15T02:41:06;99071.47;;;15.91;100.00
20424;BME280;10371;49.042;8.002;2022-10-15T02:42:07;99080.31;;;15.90;100.00
20424;BME280;10371;49.042;8.002;2022-10-15T02:43:09;99079.97;;;15.93;100.00
20424;BME280;10371;49.042;8.002;2022-10-15T02:44:10;99078.34;;;15.92;100.00
20424;BME280;10371;49.042;8.002;2022-10-15T02:45:10;99075.72;;;15.92;100.00
20424;BME280;10371;49.042;8.002;2022-10-15T02:46:11;99077.19;;;15.95;100.00
20424;BME280;10371;49.042;8.002;2022-10-15T02:47:12;99081.63;;;15.94;100.00
20424;BME280;10371;49.042;8.002;2022-10-15T02:48:13;99079.50;;;15.90;100.00
20424;BME280;10371;49.042;8.002;2022-10-15T02:49:13;99081.97;;;15.91;100.00
20424;BME280;10371;49.042;8.002;2022-10-15T02:50:13;99078.50;;;15.91;100.00
20424;BME280;10371;49.042;8.002;2022-10-15T02:51:14;99075.72;;;15.92;100.00
20424;BME280;10371;49.042;8.002;2022-10-15T02:52:14;99081.63;;;15.94;100.00
20424;BME280;10371;49.042;8.002;2022-10-15T02:53:14;99081.41;;;15.96;100.00
20424;BME280;10371;49.042;8.002;2022-10-15T02:54:15;99082.22;;;15.96;100.00
20424;BME280;10371;49.042;8.002;2022-10-15T02:55:15;99079.00;;;15.94;100.00
20424;BME280;10371;49.042;8.002;2022-10-15T02:56:15;99083.25;;;15.95;100.00
20424;BME280;10371;49.042;8.002;2022-10-15T02:57:16;99074.56;;;15.95;100.00
20424;BME280;10371;49.042;8.002;2022-10-15T02:58:16;99081.25;;;15.97;100.00
20424;BME280;10371;49.042;8.002;2022-10-15T02:59:16;99083.88;;;15.97;100.00
20424;BME280;10371;49.042;8.002;2022-10-15T03:00:18;99090.09;;;15.96;100.00
20424;BME280;10371;49.042;8.002;2022-10-15T03:01:19;99081.41;;;15.96;100.00
20424;BME280;10371;49.042;8.002;2022-10-15T03:02:19;99076.19;;;15.96;100.00
20424;BME280;10371;49.042;8.002;2022-10-15T03:03:19;99081.91;;;15.99;100.00
20424;BME280;10371;49.042;8.002;2022-10-15T03:04:20;99086.16;;;16.00;100.00
20424;BME280;10371;49.042;8.002;2022-10-15T03:05:20;99095.66;;;16.01;100.00
20424;BME280;10371;49.042;8.002;2022-10-15T03:06:21;99079.28;;;15.99;100.00
20424;BME280;10371;49.042;8.002;2022-10-15T03:07:21;99081.72;;;16.01;100.00
20424;BME280;10371;49.042;8.002;2022-10-15T03:08:21;99088.25;;;16.05;100.00
20424;BME280;10371;49.042;8.002;2022-10-15T03:09:22;99079.75;;;16.03;100.00
20424;BME280;10371;49.042;8.002;2022-10-15T03:10:22;99083.00;;;16.05;100.00
20424;BME280;10371;49.042;8.002;2022-10-15T03:11:22;99076.09;;;16.04;100.00
20424;BME280;10371;49.042;8.002;2022-10-15T03:12:23;99082.16;;;16.04;100.00
20424;BME280;10371;49.042;8.002;2022-10-15T03:13:25;99079.75;;;16.03;100.00
20424;BME280;10371;49.042;8.002;2022-10-15T03:14:25;99083.81;;;16.05;100.00
20424;BME280;10371;49.042;8.002;2022-10-15T03:15:25;99085.44;;;16.06;100.00
20424;BME280;10371;49.042;8.002;2022-10-15T03:16:25;99081.19;;;16.05;100.00
20424;BME280;10371;49.042;8.002;2022-10-15T03:17:26;99088.06;;;16.06;100.00
20424;BME280;10371;49.042;8.002;2022-10-15T03:18:26;99085.44;;;16.06;100.00
20424;BME280;10371;49.042;8.002;2022-10-15T03:19:26;99081.84;;;16.07;100.00
20424;BME280;10371;49.042;8.002;2022-10-15T03:20:26;99084.28;;;16.09;100.00
20424;BME280;10371;49.042;8.002;2022-10-15T03:21:27;99084.47;;;16.07;100.00
20424;BME280;10371;49.042;8.002;2022-10-15T03:22:29;99089.72;;;16.07;100.00
20424;BME280;10371;49.042;8.002;2022-10-15T03:23:30;99093.97;;;16.08;100.00
20424;BME280;10371;49.042;8.002;2022-10-15T03:24:30;99088.34;;;16.12;100.00
20424;BME280;10371;49.042;8.002;2022-10-15T03:25:30;99092.81;;;16.11;100.00
20424;BME280;10371;49.042;8.002;2022-10-15T03:26:31;99094.41;;;16.12;100.00
20424;BME280;10371;49.042;8.002;2022-10-15T03:27:31;99100.31;;;16.14;100.00
20424;BME280;10371;49.042;8.002;2022-10-15T03:28:31;99096.06;;;16.13;100.00
20424;BME280;10371;49.042;8.002;2022-10-15T03:29:31;99090.97;;;16.12;100.00
20424;BME280;10371;49.042;8.002;2022-10-15T03:30:32;99096.22;;;16.12;100.00
20424;BME280;10371;49.042;8.002;2022-10-15T03:31:32;99100.47;;;16.13;100.00
20424;BME280;10371;49.042;8.002;2022-10-15T03:32:32;99093.25;;;16.15;100.00
20424;BME280;10371;49.042;8.002;2022-10-15T03:33:33;99095.06;;;16.14;100.00
20424;BME280;10371;49.042;8.002;2022-10-15T03:34:33;99097.50;;;16.16;100.00
20424;BME280;10371;49.042;8.002;2022-10-15T03:35:33;99097.69;;;16.14;100.00
20424;BME280;10371;49.042;8.002;2022-10-15T03:36:33;99100.13;;;16.16;100.00
20424;BME280;10371;49.042;8.002;2022-10-15T03:37:34;99092.25;;;16.16;100.00
20424;BME280;10371;49.042;8.002;2022-10-15T03:38:34;99091.44;;;16.15;100.00
20424;BME280;10371;49.042;8.002;2022-10-15T03:39:34;99089.63;;;16.16;100.00
20424;BME280;10371;49.042;8.002;2022-10-15T03:40:35;99089.28;;;16.19;100.00
20424;BME280;10371;49.042;8.002;2022-10-15T03:41:35;99103.84;;;16.21;100.00
20424;BME280;10371;49.042;8.002;2022-10-15T03:42:35;99096.31;;;16.18;100.00
20424;BME280;10371;49.042;8.002;2022-10-15T03:43:36;99100.59;;;16.19;100.00
20424;BME280;10371;49.042;8.002;2022-10-15T03:44:36;99102.22;;;16.20;100.00
20424;BME280;10371;49.042;8.002;2022-10-15T03:45:36;99097.78;;;16.21;100.00
20424;BME280;10371;49.042;8.002;2022-10-15T03:46:37;99105.03;;;16.19;100.00
20424;BME280;10371;49.042;8.002;2022-10-15T03:47:37;99105.66;;;16.21;100.00
20424;BME280;10371;49.042;8.002;2022-10-15T03:48:37;99110.09;;;16.20;100.00
20424;BME280;10371;49.042;8.002;2022-10-15T03:49:37;99102.41;;;16.19;100.00
20424;BME280;10371;49.042;8.002;2022-10-15T03:50:38;99104.41;;;16.17;100.00
20424;BME280;10371;49.042;8.002;2022-10-15T03:51:38;99105.22;;;16.17;100.00
20424;BME280;10371;49.042;8.002;2022-10-15T03:52:38;99106.22;;;16.16;100.00
20424;BME280;10371;49.042;8.002;2022-10-15T03:53:39;99107.03;;;16.17;100.00
20424;BME280;10371;49.042;8.002;2022-10-15T03:54:39;99110.31;;;16.19;100.00
20424;BME280;10371;49.042;8.002;2022-10-15T03:55:39;99110.31;;;16.19;100.00
20424;BME280;10371;49.042;8.002;2022-10-15T03:56:40;99109.47;;;16.18;100.00
20424;BME280;10371;49.042;8.002;2022-10-15T03:57:40;99114.56;;;16.20;100.00
20424;BME280;10371;49.042;8.002;2022-10-15T03:58:41;99115.56;;;16.19;100.00
20424;BME280;10371;49.042;8.002;2022-10-15T03:59:41;99118.34;;;16.17;100.00
20424;BME280;10371;49.042;8.002;2022-10-15T04:00:42;99109.47;;;16.18;100.00
20424;BME280;10371;49.042;8.002;2022-10-15T04:01:43;99105.38;;;16.16;100.00
20424;BME280;10371;49.042;8.002;2022-10-15T04:02:43;99107.03;;;16.17;100.00
20424;BME280;10371;49.042;8.002;2022-10-15T04:03:44;99109.00;;;16.15;100.00
20424;BME280;10371;49.042;8.002;2022-10-15T04:04:44;99111.47;;;16.16;100.00
20424;BME280;10371;49.042;8.002;2022-10-15T04:05:51;99117.34;;;16.18;100.00
20424;BME280;10371;49.042;8.002;2022-10-15T04:06:52;99119.16;;;16.18;100.00
20424;BME280;10371;49.042;8.002;2022-10-15T04:07:52;99124.41;;;16.18;100.00
20424;BME280;10371;49.042;8.002;2022-10-15T04:08:52;99118.34;;;16.17;100.00
20424;BME280;10371;49.042;8.002;2022-10-15T04:09:53;99123.44;;;16.19;100.00
20424;BME280;10371;49.042;8.002;2022-10-15T04:10:53;99116.53;;;16.18;100.00
20424;BME280;10371;49.042;8.002;2022-10-15T04:11:53;99130.47;;;16.18;100.00
20424;BME280;10371;49.042;8.002;2022-10-15T04:12:53;99130.66;;;16.17;100.00
20424;BME280;10371;49.042;8.002;2022-10-15T04:13:54;99126.38;;;16.16;100.00
20424;BME280;10371;49.042;8.002;2022-10-15T04:14:54;99133.28;;;16.17;100.00
20424;BME280;10371;49.042;8.002;2022-10-15T04:15:54;99133.28;;;16.17;100.00
20424;BME280;10371;49.042;8.002;2022-10-15T04:16:55;99134.91;;;16.18;100.00
20424;BME280;10371;49.042;8.002;2022-10-15T04:17:55;99135.56;;;16.20;100.00
20424;BME280;10371;49.042;8.002;2022-10-15T04:18:56;99128.69;;;16.19;100.00
20424;BME280;10371;49.042;8.002;2022-10-15T04:19:57;99135.91;;;16.17;100.00
20424;BME280;10371;49.042;8.002;2022-10-15T04:20:59;99133.94;;;16.19;100.00
20424;BME280;10371;49.042;8.002;2022-10-15T04:21:59;99134.56;;;16.21;100.00
20424;BME280;10371;49.042;8.002;2022-10-15T04:23:00;99140.97;;;16.18;100.00
20424;BME280;10371;49.042;8.002;2022-10-15T04:24:00;99133.28;;;16.17;100.00
20424;BME280;10371;49.042;8.002;2022-10-15T04:25:00;99140.16;;;16.18;100.00
20424;BME280;10371;49.042;8.002;2022-10-15T04:26:01;99140.16;;;16.18;100.00
20424;BME280;10371;49.042;8.002;2022-10-15T04:27:01;99150.03;;;16.16;100.00
20424;BME280;10371;49.042;8.002;2022-10-15T04:28:02;99151.66;;;16.17;100.00
20424;BME280;10371;49.042;8.002;2022-10-15T04:29:03;99157.91;;;16.16;100.00
20424;BME280;10371;49.042;8.002;2022-10-15T04:30:04;99156.28;;;16.15;100.00
20424;BME280;10371;49.042;8.002;2022-10-15T04:31:04;99167.59;;;16.15;100.00
20424;BME280;10371;49.042;8.002;2022-10-15T04:32:04;99165.16;;;16.14;100.00
20424;BME280;10371;49.042;8.002;2022-10-15T04:33:04;99159.91;;;16.14;100.00
20424;BME280;10371;49.042;8.002;2022-10-15T04:34:05;99167.78;;;16.14;100.00
20424;BME280;10371;49.042;8.002;2022-10-15T04:35:05;99167.59;;;16.15;100.00
20424;BME280;10371;49.042;8.002;2022-10-15T04:36:08;99161.53;;;16.15;100.00
20424;BME280;10371;49.042;8.002;2022-10-15T04:37:11;99159.09;;;16.13;100.00
20424;BME280;10371;49.042;8.002;2022-10-15T04:38:11;99163.16;;;16.16;100.00
20424;BME280;10371;49.042;8.002;2022-10-15T04:39:11;99166.78;;;16.15;100.00
20424;BME280;10371;49.042;8.002;2022-10-15T04:40:12;99159.72;;;16.15;100.00
20424;BME280;10371;49.042;8.002;2022-10-15T04:41:12;99162.34;;;16.15;100.00
20424;BME280;10371;49.042;8.002;2022-10-15T04:42:12;99157.91;;;16.16;100.00
20424;BME280;10371;49.042;8.002;2022-10-15T04:43:13;99167.59;;;16.15;100.00
20424;BME280;10371;49.042;8.002;2022-10-15T04:44:13;99156.63;;;16.12;100.00
20424;BME280;10371;49.042;8.002;2022-10-15T04:45:14;99160.06;;;16.12;100.00
20424;BME280;10371;49.042;8.002;2022-10-15T04:46:14;99170.41;;;16.14;100.00
20424;BME280;10371;49.042;8.002;2022-10-15T04:47:14;99164.81;;;16.17;100.00
20424;BME280;10371;49.042;8.002;2022-10-15T04:48:15;99160.06;;;16.12;100.00
20424;BME280;10371;49.042;8.002;2022-10-15T04:49:15;99166.78;;;16.15;100.00
20424;BME280;10371;49.042;8.002;2022-10-15T04:50:15;99166.63;;;16.16;100.00
20424;BME280;10371;49.042;8.002;2022-10-15T04:51:18;99170.88;;;16.17;100.00
20424;BME280;10371;49.042;8.002;2022-10-15T04:52:19;99170.22;;;16.15;100.00
20424;BME280;10371;49.042;8.002;2022-10-15T04:53:20;99173.66;;;16.16;100.00
20424;BME280;10371;49.042;8.002;2022-10-15T04:54:20;99166.13;;;16.13;100.00
20424;BME280;10371;49.042;8.002;2022-10-15T04:55:21;99165.50;;;16.11;100.00
20424;BME280;10371;49.042;8.002;2022-10-15T04:56:21;99170.13;;;16.08;100.00
20424;BME280;10371;49.042;8.002;2022-10-15T04:57:22;99174.34;;;16.09;100.00
20424;BME280;10371;49.042;8.002;2022-10-15T04:58:22;99178.00;;;16.08;100.00
20424;BME280;10371;49.042;8.002;2022-10-15T04:59:22;99176.81;;;16.11;100.00
20424;BME280;10371;49.042;8.002;2022-10-15T05:00:22;99175.38;;;16.08;100.00
20424;BME280;10371;49.042;8.002;2022-10-15T05:01:23;99182.06;;;16.11;100.00
20424;BME280;10371;49.042;8.002;2022-10-15T05:02:23;99182.25;;;16.09;100.00
20424;BME280;10371;49.042;8.002;2022-10-15T05:03:23;99182.44;;;16.08;100.00
20424;BME280;10371;49.042;8.002;2022-10-15T05:04:24;99189.50;;;16.07;100.00
20424;BME280;10371;49.042;8.002;2022-10-15T05:05:24;99190.31;;;16.08;100.00
20424;BME280;10371;49.042;8.002;2022-10-15T05:06:24;99192.13;;;16.07;100.00
20424;BME280;10371;49.042;8.002;2022-10-15T05:07:25;99186.69;;;16.09;100.00
20424;BME280;10371;49.042;8.002;2022-10-15T05:08:25;99190.31;;;16.08;100.00
20424;BME280;10371;49.042;8.002;2022-10-15T05:09:25;99189.31;;;16.09;100.00
20424;BME280;10371;49.042;8.002;2022-10-15T05:10:25;99187.50;;;16.09;100.00
20424;BME280;10371;49.042;8.002;2022-10-15T05:11:26;99191.78;;;16.11;100.00
20424;BME280;10371;49.042;8.002;2022-10-15T05:12:26;99189.50;;;16.07;100.00
20424;BME280;10371;49.042;8.002;2022-10-15T05:13:27;99193.75;;;16.08;100.00
20424;BME280;10371;49.042;8.002;2022-10-15T05:14:27;99193.75;;;16.08;100.00
20424;BME280;10371;49.042;8.002;2022-10-15T05:15:28;99185.22;;;16.06;100.00
20424;BME280;10371;49.042;8.002;2022-10-15T05:16:29;99187.69;;;16.08;100.00
20424;BME280;10371;49.042;8.002;2022-10-15T05:17:29;99194.09;;;16.05;100.00
20424;BME280;10371;49.042;8.002;2022-10-15T05:18:29;99187.19;;;16.04;100.00
20424;BME280;10371;49.042;8.002;2022-10-15T05:19:30;99196.72;;;16.05;100.00
20424;BME280;10371;49.042;8.002;2022-10-15T05:20:30;99184.91;;;16.01;100.00
20424;BME280;10371;49.042;8.002;2022-10-15T05:21:33;99193.78;;;16.00;100.00
20424;BME280;10371;49.042;8.002;2022-10-15T05:22:33;99192.78;;;16.01;100.00
20424;BME280;10371;49.042;8.002;2022-10-15T05:23:34;99187.53;;;16.01;100.00
20424;BME280;10371;49.042;8.002;2022-10-15T05:24:35;99191.34;;;15.99;100.00
20424;BME280;10371;49.042;8.002;2022-10-15T05:25:36;99191.16;;;16.00;100.00
20424;BME280;10371;49.042;8.002;2022-10-15T05:26:36;99189.88;;;15.96;100.00
20424;BME280;10371;49.042;8.002;2022-10-15T05:27:36;99194.16;;;15.97;100.00
20424;BME280;10371;49.042;8.002;2022-10-15T05:28:36;99205.31;;;15.99;100.00
20424;BME280;10371;49.042;8.002;2022-10-15T05:29:37;99197.59;;;15.98;100.00
20424;BME280;10371;49.042;8.002;2022-10-15T05:30:38;99187.91;;;15.98;100.00
20424;BME280;10371;49.042;8.002;2022-10-15T05:31:39;99202.03;;;15.97;100.00
20424;BME280;10371;49.042;8.002;2022-10-15T05:32:39;99200.38;;;15.96;100.00
20424;BME280;10371;49.042;8.002;2022-10-15T05:33:39;99200.22;;;15.98;100.00
20424;BME280;10371;49.042;8.002;2022-10-15T05:34:40;99204.81;;;15.96;100.00
20424;BME280;10371;49.042;8.002;2022-10-15T05:35:40;99202.38;;;15.94;100.00
20424;BME280;10371;49.042;8.002;2022-10-15T05:36:40;99204.81;;;15.96;100.00
20424;BME280;10371;49.042;8.002;2022-10-15T05:37:41;99203.34;;;15.93;100.00
20424;BME280;10371;49.042;8.002;2022-10-15T05:38:41;99204.00;;;15.95;100.00
20424;BME280;10371;49.042;8.002;2022-10-15T05:39:42;99204.69;;;15.89;100.00
20424;BME280;10371;49.042;8.002;2022-10-15T05:40:47;99218.94;;;15.95;100.00
20424;BME280;10371;49.042;8.002;2022-10-15T05:41:47;99218.13;;;15.94;100.00
20424;BME280;10371;49.042;8.002;2022-10-15T05:42:50;99215.84;;;15.91;100.00
20424;BME280;10371;49.042;8.002;2022-10-15T05:43:54;99220.44;;;15.89;100.00
20424;BME280;10371;49.042;8.002;2022-10-15T05:44:55;99224.06;;;15.88;100.00